Time;durP1;ratioP1;P1;durP2;ratioP2;P2;SDS_P1;SDS_P2;PMS_P1;PMS_P2;Temp;Humidity;BMP_temperature;BMP_pressure;BME280_temperature;BME280_humidity;BME280_pressure;Samples;Min_cycle;Max_cycle;Signal;HPM_P1;HPM_P2
2023/06/10 00:02:16;;;;;;;8.10;4.72;;;14.50;99.90;;;;;;5035091;28;20099;-27
2023/06/10 00:04:42;;;;;;;8.45;5.10;;;14.40;99.90;;;;;;5033782;28;20409;-27
2023/06/10 00:07:08;;;;;;;10.35;5.55;;;14.40;99.90;;;;;;5034033;28;20053;-27
2023/06/10 00:09:36;;;;;;;7.60;4.72;;;14.40;99.90;;;;;;5033919;28;20099;-27
2023/06/10 00:12:07;;;;;;;9.70;4.75;;;14.40;99.90;;;;;;5032458;28;20056;-26
2023/06/10 00:14:33;;;;;;;12.30;4.90;;;14.40;99.90;;;;;;5034145;28;20047;-27
2023/06/10 00:16:59;;;;;;;8.48;4.40;;;14.40;99.90;;;;;;5032736;28;20051;-27
2023/06/10 00:19:25;;;;;;;13.57;5.88;;;14.40;99.90;;;;;;5033262;28;20045;-27
2023/06/10 00:21:52;;;;;;;9.48;4.75;;;14.40;99.90;;;;;;5032911;28;20140;-26
2023/06/10 00:24:18;;;;;;;9.38;4.65;;;14.30;99.90;;;;;;5032659;28;20468;-28
2023/06/10 00:26:44;;;;;;;9.13;4.75;;;14.40;99.90;;;;;;5033905;28;20045;-26
2023/06/10 00:29:10;;;;;;;7.80;4.55;;;14.40;99.90;;;;;;5033524;28;20493;-27
2023/06/10 00:31:37;;;;;;;13.80;5.53;;;14.40;99.90;;;;;;5033929;28;20062;-27
2023/06/10 00:34:03;;;;;;;8.38;4.50;;;14.40;99.90;;;;;;5033034;28;20496;-26
2023/06/10 00:36:30;;;;;;;6.35;4.00;;;14.40;92.20;;;;;;5033749;28;20045;-27
2023/06/10 00:38:56;;;;;;;11.02;5.03;;;14.40;94.30;;;;;;5033310;28;20550;-27
2023/06/10 00:41:22;;;;;;;10.38;4.85;;;14.40;75.00;;;;;;5032414;28;20061;-27
2023/06/10 00:43:48;;;;;;;8.00;4.63;;;14.40;48.30;;;;;;5033510;28;20049;-26
2023/06/10 00:46:14;;;;;;;9.93;4.60;;;14.40;36.50;;;;;;5032652;28;20128;-27
2023/06/10 00:48:42;;;;;;;13.23;5.45;;;14.30;38.40;;;;;;5032625;28;20528;-26
2023/06/10 00:51:09;;;;;;;9.15;5.00;;;14.30;67.80;;;;;;5032575;28;20485;-26
2023/06/10 00:53:36;;;;;;;9.38;4.95;;;14.30;42.10;;;;;;5032601;28;20137;-27
2023/06/10 00:56:03;;;;;;;10.45;5.20;;;14.20;74.50;;;;;;5033533;28;20057;-26
2023/06/10 00:58:29;;;;;;;7.75;4.38;;;14.30;80.00;;;;;;5015965;28;20045;-27
2023/06/10 01:00:55;;;;;;;14.27;5.47;;;14.20;73.60;;;;;;5033499;28;20042;-27
2023/06/10 01:03:21;;;;;;;6.93;4.55;;;14.10;69.00;;;;;;5033426;28;20471;-26
2023/06/10 01:06:11;;;;;;;9.45;5.30;;;14.10;99.90;;;;;;5033712;28;20103;-27
2023/06/10 01:08:46;;;;;;;9.13;4.55;;;14.00;99.90;;;;;;5034252;28;20084;-27
2023/06/10 01:11:34;;;;;;;9.50;5.18;;;14.00;99.90;;;;;;5034019;28;20091;-26
2023/06/10 01:14:01;;;;;;;9.73;5.10;;;14.00;99.90;;;;;;5033708;28;20046;-27
2023/06/10 01:16:28;;;;;;;8.85;5.10;;;14.00;99.90;;;;;;5015673;28;20061;-27
2023/06/10 01:18:54;;;;;;;8.38;4.82;;;14.00;89.90;;;;;;5034061;28;20362;-26
2023/06/10 01:21:24;;;;;;;9.10;5.00;;;14.00;84.80;;;;;;5033822;28;20053;-26
2023/06/10 01:23:51;;;;;;;9.68;5.15;;;14.00;59.50;;;;;;5037733;28;20046;-27
2023/06/10 01:26:20;;;;;;;8.88;5.00;;;14.00;46.80;;;;;;5037166;28;20535;-27
2023/06/10 01:28:54;;;;;;;11.93;5.18;;;14.00;34.90;;;;;;5037183;28;20080;-26
2023/06/10 01:31:41;;;;;;;8.25;5.50;;;13.90;66.10;;;;;;5037057;28;20069;-26
2023/06/10 01:34:10;;;;;;;8.60;4.82;;;13.90;78.40;;;;;;5020153;28;20447;-26
2023/06/10 01:36:37;;;;;;;10.57;5.20;;;13.80;66.00;;;;;;5037611;28;20056;-26
2023/06/10 01:39:04;;;;;;;8.18;4.93;;;13.80;36.70;;;;;;5037687;28;20084;-27
2023/06/10 01:41:31;;;;;;;10.73;5.28;;;13.80;28.40;;;;;;5037172;28;20500;-26
2023/06/10 01:43:57;;;;;;;9.77;4.70;;;13.80;16.40;;;;;;5035715;28;20401;-27
2023/06/10 01:46:23;;;;;;;9.38;5.32;;;13.70;9.00;;;;;;5036865;28;20045;-28
2023/06/10 01:48:49;;;;;;;9.13;5.28;;;13.70;17.20;;;;;;5037353;28;20041;-28
2023/06/10 01:51:15;;;;;;;10.32;5.55;;;13.60;33.50;;;;;;5036728;28;20045;-28
2023/06/10 01:53:40;;;;;;;8.80;5.47;;;13.60;33.20;;;;;;5037245;28;20072;-28
2023/06/10 01:56:06;;;;;;;9.18;5.95;;;13.50;66.70;;;;;;5019221;28;20053;-28
2023/06/10 01:58:32;;;;;;;9.50;5.68;;;13.50;99.90;;;;;;5036080;28;20131;-28
2023/06/10 02:00:58;;;;;;;12.25;6.30;;;13.40;99.90;;;;;;5018880;28;20037;-28
2023/06/10 02:03:24;;;;;;;12.18;6.32;;;13.30;99.90;;;;;;5037328;28;20046;-28
2023/06/10 02:05:49;;;;;;;10.98;6.25;;;13.20;99.90;;;;;;5036437;28;20566;-28
2023/06/10 02:08:15;;;;;;;12.27;6.78;;;13.10;99.90;;;;;;5036953;28;20103;-29
2023/06/10 02:10:41;;;;;;;11.85;7.10;;;13.00;99.90;;;;;;5036381;28;20045;-28
2023/06/10 02:13:07;;;;;;;15.07;7.05;;;12.90;99.90;;;;;;5035136;28;20045;-28
2023/06/10 02:15:32;;;;;;;11.90;6.65;;;12.80;99.90;;;;;;5036135;28;20137;-29
2023/06/10 02:18:00;;;;;;;12.45;7.30;;;12.80;99.90;;;;;;5036160;28;20076;-28
2023/06/10 02:20:26;;;;;;;13.55;8.18;;;12.70;99.90;;;;;;5018665;28;20108;-28
2023/06/10 02:22:52;;;;;;;15.40;8.10;;;12.60;99.90;;;;;;5036047;28;20501;-28
2023/06/10 02:25:17;;;;;;;14.75;7.03;;;12.60;99.90;;;;;;5018602;28;20088;-28
2023/06/10 02:27:43;;;;;;;10.77;7.38;;;12.60;99.90;;;;;;5018656;28;20046;-28
2023/06/10 02:30:10;;;;;;;11.73;7.03;;;12.60;99.90;;;;;;5035007;28;20136;-28
2023/06/10 02:32:36;;;;;;;11.55;7.22;;;12.60;1.00;;;;;;5034624;28;20481;-28
2023/06/10 02:35:02;;;;;;;10.63;6.60;;;12.50;1.00;;;;;;5035824;28;20126;-28
2023/06/10 02:37:28;;;;;;;9.32;6.35;;;12.50;1.00;;;;;;5035926;28;20049;-28
2023/06/10 02:39:54;;;;;;;9.88;6.85;;;12.50;1.00;;;;;;5035736;28;20052;-27
2023/06/10 02:42:20;;;;;;;15.30;7.82;;;12.50;27.50;;;;;;5034835;28;20081;-27
2023/06/10 02:44:45;;;;;;;9.93;6.55;;;12.50;1.00;;;;;;5035787;28;20048;-28
2023/06/10 02:47:11;;;;;;;11.05;6.55;;;12.40;1.00;;;;;;5035341;28;20053;-28
2023/06/10 02:49:37;;;;;;;10.68;6.50;;;12.40;1.00;;;;;;5034459;28;20529;-29
2023/06/10 02:52:02;;;;;;;11.60;6.45;;;12.30;1.00;;;;;;5018184;28;20045;-29
2023/06/10 02:54:28;;;;;;;11.95;7.25;;;12.30;27.80;;;;;;5035527;28;20050;-28
2023/06/10 02:56:55;;;;;;;13.50;6.65;;;12.30;57.50;;;;;;5035516;28;20095;-27
2023/06/10 02:59:21;;;;;;;12.85;7.15;;;12.20;64.30;;;;;;5036194;28;20049;-28
2023/06/10 03:01:47;;;;;;;13.48;6.63;;;12.20;25.10;;;;;;5036170;28;20050;-28
2023/06/10 03:04:16;;;;;;;10.00;6.93;;;12.20;99.90;;;;;;5035396;28;20057;-28
2023/06/10 03:06:42;;;;;;;11.10;6.85;;;12.10;99.50;;;;;;5035326;28;20050;-28
2023/06/10 03:09:07;;;;;;;12.93;6.63;;;12.10;90.10;;;;;;5034094;28;20044;-27
2023/06/10 03:11:33;;;;;;;11.90;6.53;;;12.00;99.90;;;;;;5034228;28;20045;-29
2023/06/10 03:13:59;;;;;;;11.38;7.22;;;11.90;99.90;;;;;;5034178;28;20104;-29
2023/06/10 03:16:25;;;;;;;10.88;6.82;;;11.90;99.90;;;;;;5035007;28;20056;-28
2023/06/10 03:18:52;;;;;;;11.05;5.65;;;11.80;99.90;;;;;;5035202;28;20041;-28
2023/06/10 03:21:17;;;;;;;13.27;6.63;;;11.80;99.90;;;;;;5034842;28;20103;-28
2023/06/10 03:23:43;;;;;;;12.32;7.50;;;11.80;99.90;;;;;;5034947;28;20046;-28
2023/06/10 03:26:09;;;;;;;13.18;7.25;;;11.80;99.90;;;;;;5034241;28;20473;-27
2023/06/10 03:28:36;;;;;;;10.77;6.97;;;11.70;99.90;;;;;;5035142;28;20116;-28
2023/06/10 03:31:02;;;;;;;14.90;7.55;;;11.70;99.90;;;;;;5034633;28;20049;-28
2023/06/10 03:33:27;;;;;;;16.45;7.35;;;11.70;99.90;;;;;;5035681;28;20055;-28
2023/06/10 03:35:53;;;;;;;11.63;6.93;;;11.70;99.90;;;;;;5035378;28;20132;-27
2023/06/10 03:38:19;;;;;;;13.23;7.78;;;11.70;99.90;;;;;;5034544;28;20046;-28
2023/06/10 03:40:45;;;;;;;13.88;6.63;;;11.70;99.90;;;;;;5034538;28;20041;-28
2023/06/10 03:43:10;;;;;;;12.18;7.32;;;11.80;99.90;;;;;;5033418;28;20056;-27
2023/06/10 03:45:36;;;;;;;12.88;8.07;;;11.80;99.90;;;;;;5033574;28;20045;-28
2023/06/10 03:48:03;;;;;;;12.27;8.00;;;11.80;99.90;;;;;;5034476;28;20049;-27
2023/06/10 03:50:29;;;;;;;11.80;8.10;;;11.80;99.90;;;;;;5034355;28;20052;-28
2023/06/10 03:52:54;;;;;;;18.05;8.45;;;11.90;99.90;;;;;;5034241;28;20041;-27
2023/06/10 03:55:21;;;;;;;12.05;7.05;;;11.90;99.90;;;;;;5033616;28;20041;-28
2023/06/10 03:57:48;;;;;;;19.92;8.68;;;11.90;99.90;;;;;;5034308;28;20045;-27
2023/06/10 04:00:15;;;;;;;11.88;7.20;;;12.00;99.90;;;;;;5032987;28;20052;-27
2023/06/10 04:02:45;;;;;;;14.82;8.13;;;12.00;99.90;;;;;;5033560;28;20049;-28
2023/06/10 04:05:18;;;;;;;13.90;7.70;;;12.00;99.90;;;;;;5033138;28;20519;-27
2023/06/10 04:07:44;;;;;;;15.70;7.93;;;12.10;99.90;;;;;;5033555;28;20049;-27
2023/06/10 04:10:13;;;;;;;15.57;8.07;;;12.10;99.90;;;;;;5016329;28;20497;-27
2023/06/10 04:12:39;;;;;;;13.80;7.50;;;12.20;99.90;;;;;;5034005;28;20041;-29
2023/06/10 04:15:06;;;;;;;13.48;8.18;;;12.20;99.90;;;;;;5033999;28;20425;-28
2023/06/10 04:17:31;;;;;;;11.43;7.55;;;12.20;99.90;;;;;;5033936;28;20045;-28
2023/06/10 04:20:00;;;;;;;12.30;7.28;;;12.30;99.90;;;;;;5033335;28;20088;-28
2023/06/10 04:22:26;;;;;;;11.48;7.57;;;12.30;99.90;;;;;;5034293;28;20049;-27
2023/06/10 04:24:52;;;;;;;12.60;8.68;;;12.40;99.90;;;;;;5032691;28;20041;-27
2023/06/10 04:27:18;;;;;;;13.40;7.90;;;12.40;99.90;;;;;;5033749;28;20167;-27
2023/06/10 04:29:44;;;;;;;13.18;8.48;;;12.50;99.90;;;;;;5034327;28;20041;-27
2023/06/10 04:32:10;;;;;;;18.00;8.60;;;12.50;99.90;;;;;;5033484;28;20137;-28
2023/06/10 04:34:38;;;;;;;15.77;8.02;;;12.50;99.90;;;;;;5032675;28;20049;-27
2023/06/10 04:37:04;;;;;;;14.18;8.18;;;12.60;99.90;;;;;;5033645;28;20041;-27
2023/06/10 04:39:30;;;;;;;15.48;8.43;;;12.60;99.90;;;;;;5033268;28;20551;-28
2023/06/10 04:41:56;;;;;;;14.05;8.20;;;12.70;99.90;;;;;;5033657;28;20053;-28
2023/06/10 04:44:22;;;;;;;15.90;7.90;;;12.70;99.90;;;;;;5033622;28;20128;-28
2023/06/10 04:46:47;;;;;;;19.02;9.20;;;12.80;99.90;;;;;;5033567;28;20132;-28
2023/06/10 04:49:16;;;;;;;13.57;7.93;;;12.90;99.90;;;;;;5032957;28;20044;-27
2023/06/10 04:51:42;;;;;;;14.50;7.10;;;12.90;99.90;;;;;;5033429;28;20049;-28
2023/06/10 04:54:08;;;;;;;16.98;7.63;;;13.00;99.90;;;;;;5033455;28;20045;-27
2023/06/10 04:56:33;;;;;;;14.65;7.63;;;13.10;99.90;;;;;;5035244;28;20048;-27
2023/06/10 04:58:59;;;;;;;14.95;7.70;;;13.10;99.90;;;;;;5038545;28;20379;-27
2023/06/10 05:01:25;;;;;;;15.70;7.97;;;13.20;99.90;;;;;;5040047;28;20041;-27
2023/06/10 05:03:51;;;;;;;12.57;7.95;;;13.40;99.90;;;;;;5040062;28;20049;-28
2023/06/10 05:06:17;;;;;;;18.35;8.50;;;14.10;99.90;;;;;;5039974;28;20054;-28
2023/06/10 05:08:43;;;;;;;13.05;7.20;;;15.00;99.90;;;;;;5039868;28;20045;-27
2023/06/10 05:11:09;;;;;;;14.77;7.57;;;15.80;99.90;;;;;;5040180;28;20045;-28
2023/06/10 05:13:34;;;;;;;16.55;7.68;;;16.20;99.90;;;;;;5039804;28;20504;-28
2023/06/10 05:16:00;;;;;;;17.25;6.50;;;16.20;99.90;;;;;;5038842;28;20048;-28
2023/06/10 05:18:26;;;;;;;13.18;7.65;;;15.70;99.90;;;;;;5039699;28;20052;-27
2023/06/10 05:20:53;;;;;;;18.23;7.38;;;15.40;99.90;;;;;;5038597;28;20045;-28
2023/06/10 05:23:19;;;;;;;14.32;6.45;;;15.90;99.90;;;;;;5039563;28;20103;-27
2023/06/10 05:25:45;;;;;;;19.45;9.05;;;16.80;99.90;;;;;;5022054;28;20037;-27
2023/06/10 05:28:11;;;;;;;11.98;7.18;;;17.60;28.30;;;;;;5039682;28;20050;-28
2023/06/10 05:30:37;;;;;;;10.98;6.28;;;18.10;1.00;;;;;;5038610;28;20485;-28
2023/06/10 05:33:04;;;;;;;16.75;6.60;;;18.50;99.90;;;;;;5038513;28;20128;-27
2023/06/10 05:35:30;;;;;;;12.73;6.65;;;18.90;99.90;;;;;;5039638;28;20072;-27
2023/06/10 05:37:56;;;;;;;15.77;6.90;;;19.30;57.00;;;;;;5040162;28;20481;-28
2023/06/10 05:40:22;;;;;;;14.15;6.40;;;19.60;1.00;;;;;;5039990;28;20049;-28
2023/06/10 05:42:47;;;;;;;11.68;6.80;;;19.90;99.90;;;;;;5039572;28;20045;-28
2023/06/10 05:45:13;;;;;;;12.02;5.70;;;19.90;99.90;;;;;;5039317;28;20049;-28
2023/06/10 05:47:40;;;;;;;12.32;6.32;;;19.90;99.90;;;;;;5039796;28;20049;-28
2023/06/10 05:50:07;;;;;;;11.88;5.68;;;20.10;28.00;;;;;;5040035;28;20061;-28
2023/06/10 05:52:36;;;;;;;10.48;5.05;;;20.40;1.00;;;;;;5039399;28;20120;-28
2023/06/10 05:55:05;;;;;;;12.60;5.75;;;20.60;1.00;;;;;;5039540;28;20500;-28
2023/06/10 05:57:31;;;;;;;9.45;5.75;;;20.90;1.00;;;;;;5039886;28;20052;-27
2023/06/10 05:59:56;;;;;;;11.60;5.25;;;20.90;99.90;;;;;;5039482;28;20389;-28
2023/06/10 06:02:22;;;;;;;10.63;5.55;;;20.90;99.90;;;;;;5039489;28;20053;-28
2023/06/10 06:04:48;;;;;;;12.75;4.97;;;21.00;99.90;;;;;;5038202;28;20195;-27
2023/06/10 06:07:14;;;;;;;11.88;5.18;;;21.20;1.00;;;;;;5039664;28;20045;-28
2023/06/10 06:09:40;;;;;;;8.63;4.40;;;21.40;99.90;;;;;;5035588;28;20049;-27
2023/06/10 06:12:08;;;;;;;9.73;5.53;;;21.50;99.90;;;;;;5035343;28;20041;-30
2023/06/10 06:14:38;;;;;;;15.13;5.57;;;21.50;26.90;;;;;;5018599;28;20091;-29
2023/06/10 06:17:03;;;;;;;14.55;5.95;;;21.30;5.00;;;;;;5036288;28;20119;-31
2023/06/10 06:19:29;;;;;;;12.23;4.75;;;21.50;1.00;;;;;;5036144;28;20477;-30
2023/06/10 06:21:55;;;;;;;11.82;4.97;;;21.60;1.00;;;;;;5036053;28;20041;-31
2023/06/10 06:24:21;;;;;;;12.13;5.25;;;22.00;99.90;;;;;;5036633;28;20053;-30
2023/06/10 06:26:46;;;;;;;7.28;4.55;;;22.50;99.90;;;;;;5036336;28;20053;-29
2023/06/10 06:29:12;;;;;;;11.65;5.35;;;22.40;99.90;;;;;;5036041;28;20064;-29
2023/06/10 06:31:38;;;;;;;8.50;4.50;;;22.40;1.00;;;;;;5035943;28;20089;-29
2023/06/10 06:34:03;;;;;;;8.63;4.15;;;22.70;1.00;;;;;;5035897;28;20053;-29
2023/06/10 06:36:30;;;;;;;8.50;4.47;;;22.90;1.00;;;;;;5017879;28;20053;-29
2023/06/10 06:38:57;;;;;;;12.35;5.25;;;;;;;;;;5035795;28;20124;-28
2023/06/10 06:41:22;;;;;;;10.50;4.72;;;23.40;99.90;;;;;;5034874;28;20056;-30
2023/06/10 06:43:48;;;;;;;11.45;4.82;;;23.50;99.90;;;;;;5035069;28;20049;-30
2023/06/10 06:46:15;;;;;;;9.57;4.70;;;23.60;99.90;;;;;;5035748;28;20050;-29
2023/06/10 06:48:41;;;;;;;10.55;4.82;;;23.90;1.00;;;;;;5034444;28;20077;-30
2023/06/10 06:51:07;;;;;;;8.77;4.40;;;23.90;1.00;;;;;;5035563;28;20154;-30
2023/06/10 06:53:32;;;;;;;7.60;4.40;;;24.00;1.00;;;;;;5035554;28;20041;-30
2023/06/10 06:55:58;;;;;;;13.80;5.50;;;23.90;99.90;;;;;;5035470;28;20051;-29
2023/06/10 06:58:24;;;;;;;10.57;4.00;;;24.20;99.90;;;;;;5035360;28;20045;-30
2023/06/10 07:00:50;;;;;;;8.35;4.32;;;24.20;99.90;;;;;;5035384;28;20049;-30
2023/06/10 07:03:16;;;;;;;8.63;4.10;;;24.20;99.90;;;;;;5035910;28;20133;-30
2023/06/10 07:05:42;;;;;;;10.05;3.88;;;24.20;99.90;;;;;;5035354;28;20045;-30
2023/06/10 07:08:07;;;;;;;11.57;4.57;;;23.90;99.90;;;;;;5035013;28;20045;-29
2023/06/10 07:10:33;;;;;;;12.52;4.70;;;23.80;99.90;;;;;;5034525;28;20103;-29
2023/06/10 07:12:59;;;;;;;11.15;4.75;;;23.80;99.90;;;;;;5035740;28;20075;-30
2023/06/10 07:15:24;;;;;;;6.72;4.15;;;23.90;99.90;;;;;;5034458;28;20037;-30
2023/06/10 07:17:50;;;;;;;9.75;4.50;;;24.00;99.20;;;;;;5034351;28;20112;-31
2023/06/10 07:20:16;;;;;;;7.75;4.07;;;24.10;1.00;;;;;;5034495;28;20053;-29
2023/06/10 07:22:42;;;;;;;8.13;3.90;;;24.30;1.00;;;;;;5033928;28;20052;-30
2023/06/10 07:25:08;;;;;;;9.40;4.35;;;24.50;1.00;;;;;;5033731;28;20054;-30
2023/06/10 07:27:36;;;;;;;8.00;4.50;;;24.80;1.00;;;;;;5034886;28;20051;-30
2023/06/10 07:30:04;;;;;;;7.57;4.70;;;24.70;1.00;;;;;;5034557;28;20378;-30
2023/06/10 07:32:30;;;;;;;9.43;4.90;;;25.00;99.90;;;;;;5035002;28;20093;-29
2023/06/10 07:34:55;;;;;;;8.45;4.05;;;24.70;99.90;;;;;;5035611;28;20083;-30
2023/06/10 07:37:21;;;;;;;6.32;4.05;;;24.60;99.90;;;;;;5034586;28;20050;-29
2023/06/10 07:39:47;;;;;;;9.20;4.30;;;24.50;99.90;;;;;;5033108;28;20045;-30
2023/06/10 07:42:13;;;;;;;8.13;3.95;;;24.70;99.90;;;;;;5034662;28;20052;-30
2023/06/10 07:44:38;;;;;;;7.07;4.05;;;24.60;99.90;;;;;;5033429;28;20052;-30
2023/06/10 07:47:04;;;;;;;8.30;4.28;;;24.70;1.00;;;;;;5034546;28;20434;-30
2023/06/10 07:49:30;;;;;;;7.47;4.18;;;25.30;99.90;;;;;;5034045;28;20052;-30
2023/06/10 07:51:56;;;;;;;10.80;4.45;;;25.70;99.90;;;;;;5034999;28;20489;-30
2023/06/10 07:54:21;;;;;;;8.80;4.07;;;25.80;99.90;;;;;;5034513;28;20041;-31
2023/06/10 07:56:47;;;;;;;7.15;3.78;;;25.80;99.90;;;;;;5034871;28;20461;-30
2023/06/10 07:59:14;;;;;;;7.85;4.03;;;25.90;99.90;;;;;;5034263;28;20049;-29
2023/06/10 08:01:40;;;;;;;8.80;4.35;;;25.60;99.90;;;;;;5033008;28;20045;-30
2023/06/10 08:04:06;;;;;;;11.00;4.60;;;25.40;99.90;;;;;;5034093;28;20045;-32
2023/06/10 08:06:32;;;;;;;6.88;4.32;;;25.30;99.90;;;;;;5033210;28;20052;-28
2023/06/10 08:08:58;;;;;;;7.45;4.20;;;25.60;99.90;;;;;;5034159;28;20041;-29
2023/06/10 08:11:25;;;;;;;8.75;4.30;;;25.60;99.90;;;;;;5033935;28;20049;-29
2023/06/10 08:13:51;;;;;;;8.30;3.88;;;25.70;99.90;;;;;;5034910;28;20045;-29
2023/06/10 08:16:17;;;;;;;8.25;4.88;;;26.10;99.90;;;;;;5034261;28;20489;-28
2023/06/10 08:18:42;;;;;;;5.00;3.75;;;26.20;99.90;;;;;;5033124;28;20044;-28
2023/06/10 08:21:08;;;;;;;11.23;4.43;;;26.30;99.90;;;;;;5034332;28;20050;-29
2023/06/10 08:23:34;;;;;;;10.80;5.15;;;26.30;99.90;;;;;;5033849;28;20046;-28
2023/06/10 08:26:00;;;;;;;6.75;4.18;;;26.40;99.90;;;;;;5033071;28;20072;-28
2023/06/10 08:28:25;;;;;;;7.93;4.35;;;26.20;99.90;;;;;;5033439;28;20508;-29
2023/06/10 08:30:51;;;;;;;6.78;3.90;;;26.30;99.90;;;;;;5033206;28;20045;-28
2023/06/10 08:33:17;;;;;;;8.32;3.38;;;26.40;99.90;;;;;;5032907;28;20508;-29
2023/06/10 08:35:43;;;;;;;7.28;3.55;;;26.80;99.90;;;;;;5033672;28;20456;-28
2023/06/10 08:38:08;;;;;;;9.30;4.20;;;27.00;99.90;;;;;;5032412;28;20068;-28
2023/06/10 08:40:34;;;;;;;8.52;3.92;;;27.00;99.90;;;;;;5032466;28;20128;-30
2023/06/10 08:43:07;;;;;;;8.38;4.40;;;26.90;99.90;;;;;;5033207;28;20041;-28
2023/06/10 08:45:36;;;;;;;8.52;4.88;;;27.00;99.90;;;;;;5032883;28;20053;-29
2023/06/10 08:48:08;;;;;;;6.45;3.88;;;27.40;98.10;;;;;;5000068;28;20057;-28
2023/06/10 08:50:38;;;;;;;8.65;3.97;;;27.20;99.90;;;;;;5034019;28;20045;-28
2023/06/10 08:53:06;;;;;;;8.48;3.78;;;27.50;88.70;;;;;;5032610;28;20493;-29
2023/06/10 08:55:41;;;;;;;7.75;3.85;;;27.30;37.20;;;;;;5033459;28;20049;-28
2023/06/10 08:58:07;;;;;;;6.55;3.65;;;27.40;41.30;;;;;;5033221;28;20049;-28
2023/06/10 09:00:34;;;;;;;7.82;3.90;;;27.70;57.60;;;;;;5033260;28;20042;-28
2023/06/10 09:03:02;;;;;;;6.32;3.15;;;27.70;46.40;;;;;;5032154;28;20047;-28
2023/06/10 09:05:29;;;;;;;15.02;4.05;;;27.80;18.00;;;;;;5032037;28;20045;-28
2023/06/10 09:07:57;;;;;;;6.68;3.90;;;27.80;1.00;;;;;;5033231;28;20049;-28
2023/06/10 09:10:23;;;;;;;10.05;3.78;;;28.10;1.00;;;;;;5034051;28;20443;-28
2023/06/10 09:12:48;;;;;;;11.15;3.78;;;28.40;7.50;;;;;;5033234;28;20129;-29
2023/06/10 09:15:17;;;;;;;9.38;3.70;;;28.40;1.00;;;;;;5032833;28;20052;-29
2023/06/10 09:17:43;;;;;;;7.93;3.72;;;28.30;1.00;;;;;;5033219;28;20532;-29
2023/06/10 09:20:09;;;;;;;8.93;4.05;;;28.30;1.00;;;;;;5032032;28;20469;-29
2023/06/10 09:22:34;;;;;;;8.05;3.47;;;28.50;1.00;;;;;;5032133;28;20056;-28
2023/06/10 09:25:13;;;;;;;9.27;3.30;;;28.60;1.00;;;;;;5032222;28;20473;-29
2023/06/10 09:27:49;;;;;;;11.35;3.90;;;28.50;1.00;;;;;;5033922;28;20460;-29
2023/06/10 09:30:27;;;;;;;6.38;3.63;;;28.60;1.00;;;;;;5033190;28;20037;-29
2023/06/10 09:32:57;;;;;;;6.45;3.40;;;28.40;1.00;;;;;;5033525;28;20053;-29
2023/06/10 09:35:27;;;;;;;5.72;3.53;;;28.80;1.00;;;;;;5033372;28;20414;-28
2023/06/10 09:37:54;;;;;;;5.88;3.40;;;29.10;1.00;;;;;;5032946;28;20469;-29
2023/06/10 09:40:20;;;;;;;5.95;3.40;;;28.80;1.00;;;;;;5033039;28;20044;-29
2023/06/10 09:42:53;;;;;;;7.47;3.67;;;28.60;1.00;;;;;;5033771;28;20045;-29
2023/06/10 09:45:19;;;;;;;5.38;3.22;;;28.70;1.00;;;;;;5021231;28;20373;-29
2023/06/10 09:47:53;;;;;;;6.63;3.20;;;28.50;1.00;;;;;;5035713;28;20046;-29
2023/06/10 09:50:19;;;;;;;7.78;3.53;;;28.90;1.00;;;;;;5037355;28;20046;-29
2023/06/10 09:52:46;;;;;;;7.90;3.40;;;29.30;1.00;;;;;;5037163;28;20052;-29
2023/06/10 09:55:12;;;;;;;5.72;3.47;;;29.50;1.00;;;;;;5036654;28;20504;-28
2023/06/10 09:57:38;;;;;;;6.63;3.72;;;29.50;1.00;;;;;;5035847;28;20041;-29
2023/06/10 10:00:12;;;;;;;8.13;3.30;;;29.60;1.00;;;;;;5035909;28;20052;-29
2023/06/10 10:02:53;;;;;;;10.05;4.05;;;29.90;1.00;;;;;;5036414;28;20049;-29
2023/06/10 10:05:21;;;;;;;5.63;3.40;;;29.90;1.00;;;;;;5036755;28;20068;-28
2023/06/10 10:07:47;;;;;;;6.93;3.50;;;29.70;1.00;;;;;;5035099;28;20089;-29
2023/06/10 10:10:14;;;;;;;6.25;3.20;;;29.40;1.00;;;;;;5035198;28;20055;-29
2023/06/10 10:12:41;;;;;;;4.95;3.22;;;29.50;1.00;;;;;;5037059;28;20051;-30
2023/06/10 10:15:15;;;;;;;6.00;3.83;;;29.50;1.00;;;;;;5035245;28;20498;-29
2023/06/10 10:17:49;;;;;;;6.60;3.78;;;29.90;1.00;;;;;;5036245;28;20505;-29
2023/06/10 10:20:20;;;;;;;7.72;3.30;;;29.80;1.00;;;;;;5036137;28;20081;-29
2023/06/10 10:22:47;;;;;;;5.15;3.53;;;30.10;1.00;;;;;;5036119;28;20049;-29
2023/06/10 10:25:25;;;;;;;6.88;4.00;;;30.40;1.00;;;;;;5035938;28;20489;-29
2023/06/10 10:27:52;;;;;;;7.10;3.50;;;30.20;1.00;;;;;;5036869;28;20103;-29
2023/06/10 10:30:20;;;;;;;6.78;3.15;;;30.20;1.00;;;;;;5036086;28;20056;-29
2023/06/10 10:33:08;;;;;;;4.25;2.92;;;30.50;1.00;;;;;;5017927;28;20071;-29
2023/06/10 10:35:34;;;;;;;6.93;3.92;;;30.40;1.00;;;;;;5036535;28;20053;-29
2023/06/10 10:38:02;;;;;;;7.97;3.78;;;30.70;1.00;;;;;;5036683;28;20091;-30
2023/06/10 10:40:29;;;;;;;7.20;2.85;;;30.70;1.00;;;;;;5035702;28;20045;-29
2023/06/10 10:42:56;;;;;;;7.28;3.78;;;30.90;1.00;;;;;;5034651;28;20045;-30
2023/06/10 10:45:22;;;;;;;8.05;3.90;;;31.00;1.00;;;;;;5034683;28;20048;-29
2023/06/10 10:47:53;;;;;;;5.80;3.05;;;31.20;1.00;;;;;;5035596;28;20045;-30
2023/06/10 10:50:20;;;;;;;6.47;3.17;;;31.50;1.00;;;;;;5035591;28;20090;-30
2023/06/10 10:53:02;;;;;;;6.30;3.40;;;31.30;1.00;;;;;;5034303;28;20046;-30
2023/06/10 10:55:28;;;;;;;9.02;3.10;;;31.50;1.00;;;;;;5035155;28;20049;-29
2023/06/10 10:57:56;;;;;;;5.03;3.45;;;31.30;1.00;;;;;;5035705;28;20050;-30
2023/06/10 11:00:45;;;;;;;7.00;4.03;;;31.40;1.00;;;;;;5035354;28;20080;-30
2023/06/10 11:03:19;;;;;;;6.03;2.70;;;31.10;1.00;;;;;;5033756;28;20041;-30
2023/06/10 11:05:50;;;;;;;5.43;3.00;;;31.00;1.00;;;;;;5035702;28;20050;-30
2023/06/10 11:08:41;;;;;;;5.78;3.03;;;31.30;1.00;;;;;;5034012;28;20049;-30
2023/06/10 11:11:28;;;;;;;6.65;2.95;;;31.40;1.00;;;;;;5035141;28;20107;-29
2023/06/10 11:14:06;;;;;;;5.80;2.92;;;31.10;1.00;;;;;;5036411;28;20358;-29
2023/06/10 11:16:43;;;;;;;4.57;2.75;;;31.10;1.00;;;;;;5035806;28;20045;-29
2023/06/10 11:19:10;;;;;;;6.88;3.45;;;31.20;1.00;;;;;;5034051;28;20045;-30
2023/06/10 11:22:10;;;;;;;5.78;2.67;;;31.20;1.00;;;;;;5034987;28;20047;-30
2023/06/10 11:24:38;;;;;;;5.63;2.60;;;31.40;1.00;;;;;;5034213;28;20049;-30
2023/06/10 11:27:21;;;;;;;7.22;2.75;;;31.50;1.00;;;;;;5033788;28;20077;-29
2023/06/10 11:30:05;;;;;;;7.50;3.10;;;32.00;1.00;;;;;;5035855;28;20430;-29
2023/06/10 11:32:33;;;;;;;5.30;2.92;;;31.70;1.00;;;;;;5034825;28;20093;-30
2023/06/10 11:34:59;;;;;;;5.32;2.72;;;31.60;1.00;;;;;;5033632;28;20052;-30
2023/06/10 11:37:25;;;;;;;5.85;3.40;;;31.60;1.00;;;;;;5035573;28;20045;-30
2023/06/10 11:39:55;;;;;;;4.05;2.58;;;31.60;1.00;;;;;;5034480;28;20390;-30
2023/06/10 11:42:22;;;;;;;4.75;2.45;;;31.80;1.00;;;;;;5034695;28;20053;-29
2023/06/10 11:44:54;;;;;;;7.47;2.90;;;31.80;1.00;;;;;;5034568;28;20049;-29
2023/06/10 11:47:21;;;;;;;4.55;2.80;;;31.60;5.30;;;;;;5033542;28;20042;-29
2023/06/10 11:49:56;;;;;;;6.30;2.95;;;31.80;4.20;;;;;;5034439;28;20481;-30
2023/06/10 11:52:41;;;;;;;5.05;2.83;;;31.90;39.60;;;;;;5017271;28;20135;-31
2023/06/10 11:55:07;;;;;;;4.45;2.60;;;32.30;87.30;;;;;;5035060;28;20045;-30
2023/06/10 11:57:36;;;;;;;8.10;2.65;;;32.50;97.60;;;;;;5034123;28;20045;-30
2023/06/10 12:00:06;;;;;;;5.03;2.58;;;32.30;97.70;;;;;;5034182;28;20092;-28
2023/06/10 12:02:32;;;;;;;3.80;2.40;;;32.40;99.90;;;;;;5032882;28;20088;-29
2023/06/10 12:05:12;;;;;;;5.22;3.03;;;32.20;99.90;;;;;;5034115;28;20088;-28
2023/06/10 12:07:38;;;;;;;6.50;2.47;;;32.20;99.90;;;;;;5034113;28;20107;-28
2023/06/10 12:10:04;;;;;;;9.82;3.30;;;32.30;99.90;;;;;;5033986;28;20045;-28
2023/06/10 12:12:30;;;;;;;4.72;2.42;;;32.30;99.90;;;;;;5034040;28;20049;-28
2023/06/10 12:15:02;;;;;;;5.53;2.90;;;31.90;99.90;;;;;;5016565;28;20053;-29
2023/06/10 12:17:36;;;;;;;7.57;2.40;;;31.70;81.00;;;;;;5032822;28;20096;-29
2023/06/10 12:20:04;;;;;;;7.53;2.97;;;31.50;99.90;;;;;;5034028;28;20496;-28
2023/06/10 12:22:43;;;;;;;5.53;2.22;;;31.40;97.30;;;;;;5033696;28;20060;-30
2023/06/10 12:25:11;;;;;;;5.05;2.72;;;31.70;99.90;;;;;;5034695;28;20063;-28
2023/06/10 12:27:41;;;;;;;5.63;2.63;;;31.60;82.70;;;;;;5032527;28;20053;-28
2023/06/10 12:30:09;;;;;;;4.20;2.45;;;31.60;96.30;;;;;;5033706;28;20048;-28
2023/06/10 12:32:38;;;;;;;5.30;2.85;;;31.60;99.30;;;;;;5033966;28;20057;-28
2023/06/10 12:35:04;;;;;;;6.55;3.42;;;31.60;99.90;;;;;;5033403;28;20463;-28
2023/06/10 12:37:33;;;;;;;6.88;3.25;;;31.20;99.90;;;;;;5033317;28;20052;-28
2023/06/10 12:40:01;;;;;;;8.25;3.78;;;31.20;99.90;;;;;;5033544;28;20041;-28
2023/06/10 12:42:26;;;;;;;6.10;3.25;;;30.80;99.90;;;;;;5033613;28;20504;-28
2023/06/10 12:44:56;;;;;;;6.15;3.75;;;30.60;99.90;;;;;;5033166;28;20050;-28
2023/06/10 12:47:31;;;;;;;7.13;3.45;;;30.50;99.90;;;;;;5033613;28;20057;-28
2023/06/10 12:49:58;;;;;;;6.63;3.47;;;30.50;99.90;;;;;;5034017;28;20042;-29